Time;durP1;ratioP1;P1;durP2;ratioP2;P2;SDS_P1;SDS_P2;PMS_P1;PMS_P2;Temp;Humidity;BMP_temperature;BMP_pressure;BME280_temperature;BME280_humidity;BME280_pressure;Samples;Min_cycle;Max_cycle;Signal;HPM_P1;HPM_P2
2021/11/08 00:01:10;;;;;;;;;;;;;;;19.63;66.05;101000.84;5084761;28;1973;-51
2021/11/08 00:03:41;;;;;;;;;;;;;;;19.61;66.09;101003.66;5085997;28;1465;-59
2021/11/08 00:06:08;;;;;;;;;;;;;;;19.60;64.59;101006.50;5084583;28;1319;-51
2021/11/08 00:08:35;;;;;;;;;;;;;;;19.64;64.45;100987.28;5080610;28;1464;-60
2021/11/08 00:11:02;;;;;;;;;;;;;;;19.59;64.45;101012.81;5089113;28;1324;-52
2021/11/08 00:13:29;;;;;;;;;;;;;;;19.68;64.21;101009.34;5078243;28;1518;-51
2021/11/08 00:16:06;;;;;;;;;;;;;;;19.73;63.73;100982.97;5079873;28;1559;-50
2021/11/08 00:18:37;;;;;;;;;;;;;;;19.86;62.77;100980.06;5085794;28;1490;-52
2021/11/08 00:21:05;;;;;;;;;;;;;;;19.79;63.30;100985.13;5080988;28;1977;-60
2021/11/08 00:23:32;;;;;;;;;;;;;;;19.70;63.55;100980.56;5084956;28;1330;-60
2021/11/08 00:25:59;;;;;;;;;;;;;;;19.83;64.25;100996.44;5079610;28;1416;-52
2021/11/08 00:28:26;;;;;;;;;;;;;;;19.75;64.33;100999.78;5081056;28;1702;-60
2021/11/08 00:30:54;;;;;;;;;;;;;;;19.77;64.19;100986.25;5086996;28;1490;-52
2021/11/08 00:33:21;;;;;;;;;;;;;;;19.80;63.40;101005.63;5078976;28;1752;-59
2021/11/08 00:35:48;;;;;;;;;;;;;;;19.72;64.60;100985.81;5076987;28;1880;-60
2021/11/08 00:38:17;;;;;;;;;;;;;;;19.67;63.59;100995.06;5082183;28;1162;-54
2021/11/08 00:40:44;;;;;;;;;;;;;;;19.54;63.71;100975.69;5080346;28;1981;-60
2021/11/08 00:43:12;;;;;;;;;;;;;;;19.66;63.56;101000.59;5083336;28;1428;-57
2021/11/08 00:45:39;;;;;;;;;;;;;;;19.62;64.84;100983.06;5086810;28;1761;-52
2021/11/08 00:48:06;;;;;;;;;;;;;;;19.56;64.08;100991.66;5082316;28;1411;-60
2021/11/08 00:50:33;;;;;;;;;;;;;;;19.54;65.41;100970.31;5082530;28;1118;-60
2021/11/08 00:52:59;;;;;;;;;;;;;;;19.58;64.92;100970.91;5089330;28;1428;-50
2021/11/08 00:55:29;;;;;;;;;;;;;;;19.59;64.44;100972.59;5087170;28;1414;-60
2021/11/08 00:57:57;;;;;;;;;;;;;;;19.59;64.52;100973.44;5085920;28;1457;-52
2021/11/08 01:00:27;;;;;;;;;;;;;;;19.65;63.16;100966.69;5088395;28;1898;-51
2021/11/08 01:02:54;;;;;;;;;;;;;;;19.71;64.21;100966.16;5088403;28;1557;-52
2021/11/08 01:05:21;;;;;;;;;;;;;;;19.70;63.45;100953.72;5079472;28;1213;-60
2021/11/08 01:07:48;;;;;;;;;;;;;;;19.74;63.38;100951.66;5079168;28;1430;-60
2021/11/08 01:10:16;;;;;;;;;;;;;;;19.67;63.46;100956.66;5090325;28;1512;-60
2021/11/08 01:12:44;;;;;;;;;;;;;;;19.68;63.84;100956.53;5086527;28;1461;-51
2021/11/08 01:15:11;;;;;;;;;;;;;;;19.77;63.08;100960.25;5082041;28;1495;-52
2021/11/08 01:17:38;;;;;;;;;;;;;;;19.80;63.57;100951.94;5086296;28;1328;-60
2021/11/08 01:20:06;;;;;;;;;;;;;;;19.81;62.78;100937.53;5079316;28;1963;-60
2021/11/08 01:22:34;;;;;;;;;;;;;;;19.80;62.52;100941.22;5083485;28;1449;-52
2021/11/08 01:25:01;;;;;;;;;;;;;;;19.75;62.34;100954.19;5090035;28;1475;-50
2021/11/08 01:27:33;;;;;;;;;;;;;;;19.68;62.71;100942.28;5083986;28;1418;-50
2021/11/08 01:30:01;;;;;;;;;;;;;;;19.71;63.19;100925.91;5086012;28;1323;-59
2021/11/08 01:32:28;;;;;;;;;;;;;;;19.68;63.70;100924.34;5088456;28;1457;-60
2021/11/08 01:34:55;;;;;;;;;;;;;;;19.75;62.91;100926.50;5077016;28;1522;-60
2021/11/08 01:37:22;;;;;;;;;;;;;;;19.68;63.52;100912.75;5083674;28;1895;-52
2021/11/08 01:39:48;;;;;;;;;;;;;;;19.74;63.29;100927.50;5085376;28;2008;-60
2021/11/08 01:42:15;;;;;;;;;;;;;;;19.70;63.20;100940.31;5087667;28;1441;-60
2021/11/08 01:44:43;;;;;;;;;;;;;;;19.75;62.07;100892.47;5086573;28;1465;-50
2021/11/08 01:47:11;;;;;;;;;;;;;;;19.72;62.68;100933.00;5079325;28;1461;-60
2021/11/08 01:49:38;;;;;;;;;;;;;;;19.72;63.25;100910.69;5080871;28;1274;-60
2021/11/08 01:52:06;;;;;;;;;;;;;;;19.70;62.84;100894.69;5078618;28;1448;-52
2021/11/08 01:54:34;;;;;;;;;;;;;;;19.68;62.95;100891.31;5079916;28;1346;-52
2021/11/08 01:57:01;;;;;;;;;;;;;;;19.64;62.89;100873.78;5088766;28;1471;-60
2021/11/08 01:59:28;;;;;;;;;;;;;;;19.66;63.49;100872.66;5089065;28;1970;-60
2021/11/08 02:01:55;;;;;;;;;;;;;;;19.64;63.48;100881.81;5082793;28;1474;-61
2021/11/08 02:04:23;;;;;;;;;;;;;;;20.11;61.10;100870.50;5087104;28;1304;-60
2021/11/08 02:06:51;;;;;;;;;;;;;;;20.13;61.13;100868.50;5074800;28;1445;-53
2021/11/08 02:09:17;;;;;;;;;;;;;;;20.45;60.57;100860.16;5085158;28;1381;-52
2021/11/08 02:11:44;;;;;;;;;;;;;;;20.56;61.75;100865.38;5081851;28;1471;-59
2021/11/08 02:14:11;;;;;;;;;;;;;;;20.19;62.21;100858.06;5077959;28;1444;-59
2021/11/08 02:16:37;;;;;;;;;;;;;;;20.27;61.12;100857.34;5082427;28;1418;-60
2021/11/08 02:19:05;;;;;;;;;;;;;;;20.39;61.95;100863.41;5089012;28;1182;-60
2021/11/08 02:21:33;;;;;;;;;;;;;;;20.31;62.81;100856.06;5080551;28;1906;-60
2021/11/08 02:24:02;;;;;;;;;;;;;;;20.11;63.03;100857.06;5085898;28;1462;-53
2021/11/08 02:26:29;;;;;;;;;;;;;;;20.18;61.88;100861.75;5090454;28;1465;-60
2021/11/08 02:28:56;;;;;;;;;;;;;;;20.27;62.23;100862.72;5083360;28;1414;-60
2021/11/08 02:31:24;;;;;;;;;;;;;;;20.33;62.36;100861.31;5088737;28;1309;-52
2021/11/08 02:33:52;;;;;;;;;;;;;;;20.14;62.15;100854.94;5082959;28;1289;-60
2021/11/08 02:36:21;;;;;;;;;;;;;;;20.15;62.61;100850.44;5085158;28;1402;-53
2021/11/08 02:38:52;;;;;;;;;;;;;;;20.27;62.65;100855.53;5086126;28;1420;-55
2021/11/08 02:41:19;;;;;;;;;;;;;;;20.26;62.02;100856.50;5078935;28;1902;-60
2021/11/08 02:43:46;;;;;;;;;;;;;;;20.04;62.11;100859.47;5079625;28;1452;-52
2021/11/08 02:46:15;;;;;;;;;;;;;;;20.12;62.72;100850.72;5087925;28;1269;-53
2021/11/08 02:48:43;;;;;;;;;;;;;;;20.36;61.75;100858.34;5082639;28;1502;-51
2021/11/08 02:51:13;;;;;;;;;;;;;;;20.33;62.38;100856.78;5080711;28;1433;-53
2021/11/08 02:53:42;;;;;;;;;;;;;;;20.05;62.06;100861.16;5085530;28;1470;-60
2021/11/08 02:56:10;;;;;;;;;;;;;;;20.06;62.30;100852.13;5079928;28;1357;-53
2021/11/08 02:58:38;;;;;;;;;;;;;;;20.37;61.33;100846.59;5083945;28;1213;-61
2021/11/08 03:01:05;;;;;;;;;;;;;;;20.23;62.25;100858.63;5180786;22;2015;-41
2021/11/08 03:03:40;;;;;;;;;;;;;;;20.04;63.76;100854.09;5014496;28;1938;-41
2021/11/08 03:06:17;;;;;;;;;;;;;;;20.02;62.81;100856.91;5021349;28;1560;-41
2021/11/08 03:08:44;;;;;;;;;;;;;;;20.29;61.24;100847.31;5025495;28;1699;-41
2021/11/08 03:14:24;;;;;;;;;;;;;;;20.07;63.11;100843.06;5014677;28;1484;-41
2021/11/08 03:17:03;;;;;;;;;;;;;;;20.05;62.18;100819.06;5015569;28;1493;-40
2021/11/08 03:19:36;;;;;;;;;;;;;;;20.35;61.05;100813.66;5014707;28;1120;-40
2021/11/08 03:24:56;;;;;;;;;;;;;;;20.07;63.58;100835.00;5018705;28;2177;-40
2021/11/08 03:27:43;;;;;;;;;;;;;;;20.11;61.91;100855.22;5022621;28;1676;-41
2021/11/08 03:30:18;;;;;;;;;;;;;;;20.43;61.84;100870.19;5024725;28;1677;-40
2021/11/08 03:33:09;;;;;;;;;;;;;;;20.28;61.55;100869.78;5024873;28;1707;-40
2021/11/08 03:35:38;;;;;;;;;;;;;;;20.04;62.04;100846.91;5030404;28;1438;-41
2021/11/08 03:38:10;;;;;;;;;;;;;;;20.18;62.56;100850.16;5022436;28;1915;-41
2021/11/08 03:40:48;;;;;;;;;;;;;;;20.35;61.05;100840.53;5018065;28;1910;-41
2021/11/08 03:43:20;;;;;;;;;;;;;;;20.31;62.01;100828.38;5020336;28;1613;-41
2021/11/08 03:45:47;;;;;;;;;;;;;;;20.05;62.65;100827.13;5020397;28;1876;-41
2021/11/08 03:48:20;;;;;;;;;;;;;;;19.97;62.44;100832.31;5024113;28;1986;-41
2021/11/08 03:50:46;;;;;;;;;;;;;;;20.58;61.49;100815.03;5018941;28;1377;-41
2021/11/08 03:53:16;;;;;;;;;;;;;;;20.53;60.59;100832.59;5028492;28;1086;-41
2021/11/08 03:55:42;;;;;;;;;;;;;;;20.27;61.44;100817.94;5018328;28;1905;-41
2021/11/08 03:58:13;;;;;;;;;;;;;;;20.11;62.21;100811.44;5021927;28;1826;-41
2021/11/08 04:01:01;;;;;;;;;;;;;;;20.27;61.22;100831.34;5018606;28;2017;-40
2021/11/08 04:03:31;;;;;;;;;;;;;;;20.51;61.50;100813.06;5020680;28;1867;-41
2021/11/08 04:06:02;;;;;;;;;;;;;;;20.31;61.24;100823.00;5024295;28;1810;-41
2021/11/08 04:11:13;;;;;;;;;;;;;;;20.22;61.25;100804.06;5017915;28;2428;-41
2021/11/08 04:13:48;;;;;;;;;;;;;;;20.49;60.73;100802.47;5020529;28;1154;-40
2021/11/08 04:16:17;;;;;;;;;;;;;;;20.31;61.47;100802.34;5023002;28;1740;-40
2021/11/08 04:18:53;;;;;;;;;;;;;;;20.18;62.20;100801.81;5020656;28;1520;-41
2021/11/08 04:21:35;;;;;;;;;;;;;;;20.00;62.93;100809.75;5025923;28;1906;-40
2021/11/08 04:24:11;;;;;;;;;;;;;;;20.10;63.55;100799.84;5031355;28;1511;-41
2021/11/08 04:26:46;;;;;;;;;;;;;;;20.34;61.93;100795.88;5025495;28;1249;-41
2021/11/08 04:29:14;;;;;;;;;;;;;;;20.23;62.79;100805.78;5029580;28;1781;-41
2021/11/08 04:31:45;;;;;;;;;;;;;;;20.11;63.90;100806.91;5024384;28;1819;-41
2021/11/08 04:40:15;;;;;;;;;;;;;;;20.16;63.66;100812.69;5004355;28;1612;-41
2021/11/08 04:42:53;;;;;;;;;;;;;;;19.96;65.08;100797.59;5019389;28;1866;-41
2021/11/08 04:51:00;;;;;;;;;;;;;;;20.15;64.44;100811.00;5132270;27;2954;-41
2021/11/08 04:53:35;;;;;;;;;;;;;;;20.13;64.06;100836.28;5134231;27;1781;-41
2021/11/08 04:56:30;;;;;;;;;;;;;;;20.04;65.11;100811.16;5128350;27;1741;-41
2021/11/08 05:21:34;;;;;;;;;;;;;;;20.27;64.06;100847.47;5059563;28;1812;-41
2021/11/08 05:32:15;;;;;;;;;;;;;;;20.25;64.77;100849.44;5144489;27;1769;-41
2021/11/08 05:34:42;;;;;;;;;;;;;;;20.15;66.02;100842.38;5145009;27;1489;-41
2021/11/08 05:37:10;;;;;;;;;;;;;;;19.93;66.04;100840.81;5150971;27;1819;-41
2021/11/08 05:39:36;;;;;;;;;;;;;;;20.16;65.30;100836.88;5142985;27;1733;-41
2021/11/08 05:42:04;;;;;;;;;;;;;;;20.07;65.57;100840.38;5148418;27;1708;-41
2021/11/08 05:44:31;;;;;;;;;;;;;;;20.13;65.10;100834.44;5148466;27;1646;-41
2021/11/08 05:46:58;;;;;;;;;;;;;;;20.20;65.95;100861.59;5148451;27;2000;-41
2021/11/08 05:49:24;;;;;;;;;;;;;;;20.26;64.81;100859.19;5149423;27;1719;-41
2021/11/08 05:51:51;;;;;;;;;;;;;;;20.43;65.67;100862.13;5150510;27;1742;-41
2021/11/08 05:54:20;;;;;;;;;;;;;;;20.28;65.26;100851.00;5155615;27;1823;-41
2021/11/08 05:56:59;;;;;;;;;;;;;;;20.22;65.79;100870.38;5148634;27;1874;-41
2021/11/08 05:59:44;;;;;;;;;;;;;;;20.21;65.95;100895.50;5137531;27;1789;-40
2021/11/08 06:49:14;;;;;;;;;;;;;;;20.12;66.60;100850.72;5132736;27;1391;-42
2021/11/08 06:51:41;;;;;;;;;;;;;;;20.29;65.26;100851.84;5132051;27;1881;-41
2021/11/08 06:54:09;;;;;;;;;;;;;;;20.30;65.17;100849.00;5131902;27;1849;-42
2021/11/08 06:56:38;;;;;;;;;;;;;;;20.04;65.90;100862.16;5133321;27;1900;-42
2021/11/08 06:59:06;;;;;;;;;;;;;;;20.02;66.12;100859.59;5131784;27;1984;-41
2021/11/08 07:01:34;;;;;;;;;;;;;;;20.36;65.46;100852.97;5126570;27;1812;-41
2021/11/08 07:04:00;;;;;;;;;;;;;;;20.26;65.10;100861.88;5136343;27;1426;-42
2021/11/08 07:06:27;;;;;;;;;;;;;;;20.00;66.56;100858.06;5123955;27;1981;-42
2021/11/08 07:08:54;;;;;;;;;;;;;;;19.86;66.66;100862.84;5133746;27;1784;-41
2021/11/08 07:11:21;;;;;;;;;;;;;;;20.16;65.19;100858.34;5133649;27;1756;-42
2021/11/08 07:13:47;;;;;;;;;;;;;;;20.17;66.34;100859.19;5130239;27;1932;-41
2021/11/08 07:16:15;;;;;;;;;;;;;;;20.04;67.02;100849.56;5134517;27;1932;-42
2021/11/08 07:18:41;;;;;;;;;;;;;;;19.99;66.70;100854.50;5139886;27;1889;-41
2021/11/08 07:21:08;;;;;;;;;;;;;;;20.32;66.07;100846.19;5140072;27;1757;-42
2021/11/08 07:23:34;;;;;;;;;;;;;;;20.33;66.13;100858.63;5133357;27;1772;-42
2021/11/08 07:26:01;;;;;;;;;;;;;;;20.14;67.58;100857.63;5133571;27;1413;-41
2021/11/08 07:28:28;;;;;;;;;;;;;;;19.90;67.29;100866.09;5141381;27;1969;-41
2021/11/08 07:30:54;;;;;;;;;;;;;;;20.15;66.93;100850.44;5133727;27;1612;-41
2021/11/08 07:33:27;;;;;;;;;;;;;;;20.22;66.58;100867.69;5130467;27;1829;-41
2021/11/08 07:35:53;;;;;;;;;;;;;;;20.05;66.94;100835.19;5129266;27;1781;-42
2021/11/08 07:38:20;;;;;;;;;;;;;;;19.90;67.26;100860.72;5133975;27;1596;-41
2021/11/08 07:40:47;;;;;;;;;;;;;;;20.12;66.82;100862.31;5136571;27;1801;-41
2021/11/08 07:43:13;;;;;;;;;;;;;;;20.30;67.19;100858.91;5128487;27;1758;-42
2021/11/08 07:45:40;;;;;;;;;;;;;;;20.22;66.82;100843.50;5131642;27;1831;-42
2021/11/08 07:48:07;;;;;;;;;;;;;;;20.05;68.03;100858.47;5129642;27;1913;-42
2021/11/08 07:50:35;;;;;;;;;;;;;;;20.02;68.15;100858.75;5131599;27;1756;-42
2021/11/08 07:53:02;;;;;;;;;;;;;;;20.34;67.25;100876.44;5133969;27;1758;-41
2021/11/08 07:55:28;;;;;;;;;;;;;;;20.18;67.44;100861.75;5134384;27;1744;-41
2021/11/08 07:57:55;;;;;;;;;;;;;;;20.25;67.05;100884.38;5135663;27;1848;-41
2021/11/08 08:00:21;;;;;;;;;;;;;;;20.13;66.88;100880.09;5131052;27;1778;-42
2021/11/08 08:02:49;;;;;;;;;;;;;;;20.27;67.72;100870.78;5131407;27;1758;-41
2021/11/08 08:05:15;;;;;;;;;;;;;;;20.24;68.05;100860.31;5132145;27;1844;-42
2021/11/08 08:07:43;;;;;;;;;;;;;;;20.12;68.41;100813.13;5135058;27;1980;-41
2021/11/08 08:10:10;;;;;;;;;;;;;;;20.02;68.40;100803.22;5140359;27;1613;-41
2021/11/08 08:12:36;;;;;;;;;;;;;;;20.31;67.22;100809.56;5129067;27;1708;-42
2021/11/08 08:15:03;;;;;;;;;;;;;;;20.30;67.60;100824.00;5130821;27;1772;-42
2021/11/08 08:17:30;;;;;;;;;;;;;;;20.16;67.04;100927.31;5136980;27;1796;-42
2021/11/08 08:19:56;;;;;;;;;;;;;;;20.05;67.93;100877.25;5144552;27;1079;-42
2021/11/08 08:22:24;;;;;;;;;;;;;;;20.29;67.75;100874.16;5135345;27;1797;-42
2021/11/08 08:24:52;;;;;;;;;;;;;;;20.37;67.10;100914.63;5131044;27;1681;-42
2021/11/08 08:27:18;;;;;;;;;;;;;;;20.22;67.06;100855.09;5133481;27;1909;-42
2021/11/08 08:29:46;;;;;;;;;;;;;;;20.18;67.60;100904.69;5131222;27;2058;-41
2021/11/08 08:32:12;;;;;;;;;;;;;;;20.13;68.15;100880.09;5128174;27;1754;-41
2021/11/08 08:34:39;;;;;;;;;;;;;;;20.29;67.03;100878.69;5133972;27;1606;-42
2021/11/08 08:37:05;;;;;;;;;;;;;;;20.30;67.49;100866.97;5134106;27;1782;-41
2021/11/08 08:39:32;;;;;;;;;;;;;;;20.25;66.86;100878.13;5127240;27;1869;-45
2021/11/08 08:42:00;;;;;;;;;;;;;;;20.12;68.62;100883.78;5133320;27;1571;-45
2021/11/08 08:44:26;;;;;;;;;;;;;;;20.32;68.01;100881.94;5132930;27;1632;-45
2021/11/08 08:46:53;;;;;;;;;;;;;;;20.29;67.69;100862.56;5131996;27;1905;-44
2021/11/08 08:49:20;;;;;;;;;;;;;;;20.37;66.70;100862.72;5129517;28;1547;-45
2021/11/08 08:51:47;;;;;;;;;;;;;;;20.17;67.34;100830.50;5129942;28;1771;-44
2021/11/08 08:54:13;;;;;;;;;;;;;;;20.37;67.96;100817.06;5127090;28;1754;-46
2021/11/08 08:56:40;;;;;;;;;;;;;;;20.32;67.29;100798.69;5131931;27;1734;-45
2021/11/08 08:59:08;;;;;;;;;;;;;;;20.23;67.84;100775.38;5134633;27;1744;-44
2021/11/08 09:01:35;;;;;;;;;;;;;;;20.11;68.06;100784.56;5135231;27;1715;-45
2021/11/08 09:04:02;;;;;;;;;;;;;;;20.24;68.40;100769.03;5130510;28;1503;-45
2021/11/08 09:06:28;;;;;;;;;;;;;;;20.36;67.54;100783.16;5128968;28;1749;-45
2021/11/08 09:08:55;;;;;;;;;;;;;;;20.24;67.29;100779.78;5133272;27;1968;-44
2021/11/08 09:11:22;;;;;;;;;;;;;;;20.14;68.10;100752.94;5131471;27;1745;-45
2021/11/08 09:13:49;;;;;;;;;;;;;;;20.14;69.03;100806.63;5131443;27;1654;-44
2021/11/08 09:16:18;;;;;;;;;;;;;;;20.37;68.36;100833.16;5131853;28;2160;-44
2021/11/08 09:18:45;;;;;;;;;;;;;;;20.28;68.61;100842.94;5129480;28;1831;-45
2021/11/08 09:21:13;;;;;;;;;;;;;;;20.16;67.63;100852.13;5125527;27;1712;-44
2021/11/08 09:23:40;;;;;;;;;;;;;;;20.08;68.19;100841.25;5135825;27;1913;-45
2021/11/08 09:26:08;;;;;;;;;;;;;;;20.21;68.15;100821.19;5133886;27;1713;-45
2021/11/08 09:28:34;;;;;;;;;;;;;;;20.32;67.56;100830.94;5131722;28;1909;-45
2021/11/08 09:31:02;;;;;;;;;;;;;;;20.25;67.40;100837.84;5129944;28;1705;-45
2021/11/08 09:33:31;;;;;;;;;;;;;;;20.13;67.86;100826.41;5136946;27;1902;-45
2021/11/08 09:36:02;;;;;;;;;;;;;;;20.18;68.04;100821.47;5125481;27;2060;-45
2021/11/08 09:38:29;;;;;;;;;;;;;;;20.47;68.04;100831.31;5133799;27;1788;-45
2021/11/08 09:40:55;;;;;;;;;;;;;;;20.39;67.01;100804.31;5140179;27;1801;-44
2021/11/08 09:43:24;;;;;;;;;;;;;;;20.19;68.17;100809.75;5142880;27;2679;-45
2021/11/08 09:45:51;;;;;;;;;;;;;;;20.14;68.57;100822.72;5134842;27;1721;-46
2021/11/08 09:48:18;;;;;;;;;;;;;;;20.22;67.84;100787.97;5137704;27;1910;-45
2021/11/08 09:50:46;;;;;;;;;;;;;;;20.37;67.94;100795.56;5130503;27;2013;-46
2021/11/08 09:53:13;;;;;;;;;;;;;;;20.29;67.59;100790.91;5134592;27;1855;-45
2021/11/08 09:55:41;;;;;;;;;;;;;;;20.19;68.55;100804.38;5140630;27;1953;-45
2021/11/08 09:58:08;;;;;;;;;;;;;;;20.19;68.30;100800.81;5133818;27;2349;-45
2021/11/08 10:00:47;;;;;;;;;;;;;;;20.27;67.79;100796.44;5132760;27;2049;-45
2021/11/08 10:03:20;;;;;;;;;;;;;;;20.48;67.40;100803.47;5132417;27;1821;-45
2021/11/08 10:05:49;;;;;;;;;;;;;;;20.30;68.24;100811.41;5134198;27;1537;-45
2021/11/08 10:08:19;;;;;;;;;;;;;;;20.29;68.35;100808.88;5131472;27;1905;-45
2021/11/08 10:10:48;;;;;;;;;;;;;;;20.40;69.14;100816.78;5128968;27;1805;-44
2021/11/08 10:13:30;;;;;;;;;;;;;;;20.59;67.54;100826.66;5134460;27;1998;-45
2021/11/08 10:15:59;;;;;;;;;;;;;;;20.49;68.26;100818.59;5131418;27;1944;-44
2021/11/08 10:18:26;;;;;;;;;;;;;;;20.42;68.66;100838.97;5141060;27;1818;-45
2021/11/08 10:21:04;;;;;;;;;;;;;;;20.37;68.14;100822.44;5129334;27;1830;-46
2021/11/08 10:23:30;;;;;;;;;;;;;;;20.54;68.04;100824.38;5133548;27;1767;-44
2021/11/08 10:25:57;;;;;;;;;;;;;;;20.73;68.12;100823.53;5133683;27;1461;-45
2021/11/08 10:28:25;;;;;;;;;;;;;;;20.64;67.62;100814.50;5139960;27;1914;-44
2021/11/08 10:30:56;;;;;;;;;;;;;;;20.46;67.99;100827.78;5127865;27;1747;-43
2021/11/08 10:33:24;;;;;;;;;;;;;;;20.37;68.68;100833.16;5127619;27;2044;-45
2021/11/08 10:35:52;;;;;;;;;;;;;;;20.41;68.50;100845.31;5133703;27;1792;-44
2021/11/08 10:38:22;;;;;;;;;;;;;;;20.27;65.92;100834.03;5134312;27;1594;-44
2021/11/08 10:40:52;;;;;;;;;;;;;;;20.21;67.32;100841.81;5134075;27;2095;-44
2021/11/08 10:43:38;;;;;;;;;;;;;;;20.22;67.57;100828.25;5136952;27;1857;-45
2021/11/08 10:46:08;;;;;;;;;;;;;;;20.44;67.42;100834.31;5134016;27;1726;-45
2021/11/08 10:48:36;;;;;;;;;;;;;;;20.66;66.18;100811.66;5132999;27;2043;-44
2021/11/08 10:51:05;;;;;;;;;;;;;;;20.47;66.79;100828.63;5133980;27;2356;-44
2021/11/08 10:53:45;;;;;;;;;;;;;;;20.24;67.50;100845.06;5134375;27;1733;-44
2021/11/08 10:56:12;;;;;;;;;;;;;;;20.09;68.16;100824.16;5136253;27;1766;-44
2021/11/08 10:58:46;;;;;;;;;;;;;;;20.40;68.48;100832.91;5133279;27;1597;-44
2021/11/08 11:01:29;;;;;;;;;;;;;;;20.44;68.19;100826.25;5130772;27;1577;-44
2021/11/08 11:03:59;;;;;;;;;;;;;;;20.28;68.10;100826.81;5133223;27;2423;-44
2021/11/08 11:06:46;;;;;;;;;;;;;;;20.11;68.54;100814.94;5128324;27;1839;-44
2021/11/08 11:09:22;;;;;;;;;;;;;;;20.30;68.43;100821.31;5135113;27;1973;-44
2021/11/08 11:12:11;;;;;;;;;;;;;;;20.57;66.62;100820.56;5128419;27;1904;-44
2021/11/08 11:14:39;;;;;;;;;;;;;;;20.65;65.15;100821.56;5130075;27;1914;-45
2021/11/08 11:17:07;;;;;;;;;;;;;;;20.42;66.71;100836.28;5135597;27;1941;-44
2021/11/08 11:19:36;;;;;;;;;;;;;;;20.15;66.92;100839.69;5137821;27;1644;-45
2021/11/08 11:22:06;;;;;;;;;;;;;;;20.19;67.68;100836.59;5131281;27;1473;-44
2021/11/08 11:24:46;;;;;;;;;;;;;;;20.36;66.38;100826.13;5137996;27;1880;-44
2021/11/08 11:27:17;;;;;;;;;;;;;;;20.19;66.75;100828.53;5123743;27;1964;-44
2021/11/08 11:29:44;;;;;;;;;;;;;;;20.04;66.98;100844.22;5133797;27;1897;-45
2021/11/08 11:32:27;;;;;;;;;;;;;;;20.22;67.49;100846.19;5129314;27;1960;-45
2021/11/08 11:34:58;;;;;;;;;;;;;;;20.39;65.94;100841.94;5133478;27;1757;-45
2021/11/08 11:37:40;;;;;;;;;;;;;;;20.25;67.04;100852.13;5138960;27;1880;-44
2021/11/08 11:40:10;;;;;;;;;;;;;;;20.13;67.60;100822.88;5135855;27;1768;-44
2021/11/08 11:42:48;;;;;;;;;;;;;;;20.13;67.23;100823.72;5126744;27;1752;-44
2021/11/08 11:45:18;;;;;;;;;;;;;;;20.46;66.39;100826.94;5132772;27;1876;-44
2021/11/08 11:47:56;;;;;;;;;;;;;;;20.11;68.47;100828.38;5136583;27;1974;-44
2021/11/08 11:50:24;;;;;;;;;;;;;;;20.06;67.52;100833.34;5126761;27;1817;-44
2021/11/08 11:52:53;;;;;;;;;;;;;;;20.18;67.26;100840.25;5141171;27;1971;-46
2021/11/08 11:55:25;;;;;;;;;;;;;;;20.31;67.07;100831.91;5133713;27;1706;-44
2021/11/08 11:58:02;;;;;;;;;;;;;;;20.16;68.27;100844.06;5132096;27;1886;-44
2021/11/08 12:00:33;;;;;;;;;;;;;;;20.13;67.76;100853.25;5128613;27;1836;-44
2021/11/08 12:03:03;;;;;;;;;;;;;;;20.22;68.07;100852.41;5130435;27;1689;-44
2021/11/08 12:05:31;;;;;;;;;;;;;;;20.26;67.89;100848.44;5123299;27;1618;-44
2021/11/08 12:07:59;;;;;;;;;;;;;;;20.23;68.00;100848.75;5125293;27;1982;-44
2021/11/08 12:10:28;;;;;;;;;;;;;;;20.08;67.87;100844.78;5136461;27;1655;-44
2021/11/08 12:12:55;;;;;;;;;;;;;;;20.35;67.44;100843.22;5132434;27;1672;-44
2021/11/08 12:15:25;;;;;;;;;;;;;;;20.29;66.92;100836.56;5131002;27;1826;-44
2021/11/08 12:17:53;;;;;;;;;;;;;;;20.12;68.58;100819.34;5135249;27;1640;-44
2021/11/08 12:20:24;;;;;;;;;;;;;;;19.93;69.09;100824.69;5136291;27;1422;-45
2021/11/08 12:22:50;;;;;;;;;;;;;;;19.96;69.18;100814.53;5138694;27;1831;-44
2021/11/08 12:25:19;;;;;;;;;;;;;;;20.18;67.82;100824.16;5129171;27;1873;-45
2021/11/08 12:27:48;;;;;;;;;;;;;;;20.06;68.44;100831.50;5132768;27;1881;-44
2021/11/08 12:30:16;;;;;;;;;;;;;;;19.92;69.50;100836.44;5137409;27;1886;-45
2021/11/08 12:32:44;;;;;;;;;;;;;;;20.06;68.92;100842.22;5133921;27;1724;-44
2021/11/08 12:35:15;;;;;;;;;;;;;;;20.26;67.29;100834.19;5124134;27;1687;-44
2021/11/08 12:37:42;;;;;;;;;;;;;;;20.04;68.10;100832.63;5132634;27;1637;-44
2021/11/08 12:40:09;;;;;;;;;;;;;;;19.91;69.44;100843.63;5135094;27;1793;-44
2021/11/08 12:42:39;;;;;;;;;;;;;;;20.05;68.69;100823.56;5134261;27;1810;-44
2021/11/08 12:45:13;;;;;;;;;;;;;;;20.23;68.41;100840.69;5131345;27;2077;-44
2021/11/08 12:47:40;;;;;;;;;;;;;;;20.14;67.81;100841.53;5133233;27;1961;-44
2021/11/08 12:50:07;;;;;;;;;;;;;;;19.93;69.60;100844.31;5139639;27;2101;-44
2021/11/08 12:52:42;;;;;;;;;;;;;;;19.94;69.49;100867.50;5130541;27;1800;-44
2021/11/08 12:55:10;;;;;;;;;;;;;;;20.15;68.84;100874.59;5127464;27;1527;-44
2021/11/08 12:57:47;;;;;;;;;;;;;;;20.20;67.96;100880.41;5130990;27;1764;-44
2021/11/08 13:00:19;;;;;;;;;;;;;;;19.99;68.52;100883.19;5130673;28;1650;-44
2021/11/08 13:02:53;;;;;;;;;;;;;;;20.04;69.06;100878.25;5134132;27;1953;-44
2021/11/08 13:05:27;;;;;;;;;;;;;;;20.34;67.52;100897.94;5133282;28;1878;-44
2021/11/08 13:07:59;;;;;;;;;;;;;;;20.26;68.38;100901.31;5124533;27;1800;-44
2021/11/08 13:10:28;;;;;;;;;;;;;;;20.09;68.79;100900.16;5132820;27;1910;-44
2021/11/08 13:12:55;;;;;;;;;;;;;;;20.07;68.66;100915.56;5137016;27;1482;-44
2021/11/08 13:15:26;;;;;;;;;;;;;;;20.33;68.20;100913.16;5138642;27;1900;-44
2021/11/08 13:18:16;;;;;;;;;;;;;;;20.20;68.08;100902.72;5136204;27;1733;-45
2021/11/08 13:20:46;;;;;;;;;;;;;;;19.92;69.52;100908.91;5128712;27;1556;-44
2021/11/08 13:23:18;;;;;;;;;;;;;;;19.92;68.59;100914.28;5137217;27;1561;-44
2021/11/08 13:25:49;;;;;;;;;;;;;;;20.11;68.16;100914.28;5142974;27;1744;-44
2021/11/08 13:28:17;;;;;;;;;;;;;;;20.01;68.19;100913.44;5132691;27;1910;-45
2021/11/08 13:30:46;;;;;;;;;;;;;;;19.94;69.19;100928.41;5137884;27;1720;-45
2021/11/08 13:33:13;;;;;;;;;;;;;;;19.92;69.06;100933.06;5141740;27;1843;-44
2021/11/08 13:35:42;;;;;;;;;;;;;;;20.16;67.72;100943.41;5127885;27;1305;-44
2021/11/08 13:38:09;;;;;;;;;;;;;;;20.00;68.82;100933.22;5138938;27;2166;-44
2021/11/08 13:40:38;;;;;;;;;;;;;;;19.97;69.39;100945.06;5142809;27;1987;-44
2021/11/08 13:43:08;;;;;;;;;;;;;;;19.85;69.63;100938.09;5145020;27;1811;-44
2021/11/08 13:45:50;;;;;;;;;;;;;;;20.12;67.83;100925.91;5132787;27;1820;-44
2021/11/08 13:48:22;;;;;;;;;;;;;;;20.17;67.63;100926.31;5134213;27;2909;-44
2021/11/08 13:50:49;;;;;;;;;;;;;;;19.99;68.09;100931.50;5131502;27;1945;-44
2021/11/08 13:53:16;;;;;;;;;;;;;;;19.81;68.69;100937.53;5139453;27;2063;-44
2021/11/08 13:55:43;;;;;;;;;;;;;;;20.09;68.98;100936.91;5143041;27;1998;-44
2021/11/08 13:58:10;;;;;;;;;;;;;;;20.10;67.69;100943.97;5135624;27;1864;-45
2021/11/08 14:00:36;;;;;;;;;;;;;;;19.97;67.94;100960.31;5136118;27;2368;-44
2021/11/08 14:03:11;;;;;;;;;;;;;;;19.84;69.65;100963.25;5137586;27;1849;-45
2021/11/08 14:05:46;;;;;;;;;;;;;;;19.88;68.53;100972.75;5129127;27;1543;-44
2021/11/08 14:08:13;;;;;;;;;;;;;;;20.04;67.80;100977.59;5129902;27;1562;-44
2021/11/08 14:10:42;;;;;;;;;;;;;;;20.03;67.76;100966.00;5134376;27;1967;-45
2021/11/08 14:13:10;;;;;;;;;;;;;;;19.84;69.41;100958.75;5137033;27;1940;-44
2021/11/08 14:15:37;;;;;;;;;;;;;;;19.95;68.40;100983.75;5130108;27;1716;-45
2021/11/08 14:18:03;;;;;;;;;;;;;;;20.09;67.55;100967.28;5135012;27;1671;-45
2021/11/08 14:20:30;;;;;;;;;;;;;;;20.15;68.06;100974.78;5134275;27;1354;-44
2021/11/08 14:22:58;;;;;;;;;;;;;;;19.89;69.04;101000.41;5133925;27;1894;-45
2021/11/08 14:25:25;;;;;;;;;;;;;;;19.87;69.27;100962.97;5137793;27;1752;-44
2021/11/08 14:27:51;;;;;;;;;;;;;;;19.98;68.61;100988.88;5137288;27;1867;-44
2021/11/08 14:30:20;;;;;;;;;;;;;;;19.97;68.36;100955.78;5132026;27;1968;-45
2021/11/08 14:32:48;;;;;;;;;;;;;;;19.86;68.62;100997.03;5131125;27;2136;-44
2021/11/08 14:35:17;;;;;;;;;;;;;;;19.80;68.86;100981.47;5140760;27;1781;-45
2021/11/08 14:37:46;;;;;;;;;;;;;;;20.13;68.15;100963.31;5134456;27;1813;-44